createdAt,value
2023-01-19T00:00:40.002Z,38.60
2023-01-19T00:03:17.763Z,38.60
2023-01-19T00:05:52.938Z,38.50
2023-01-19T00:08:27.752Z,38.60
2023-01-19T00:11:02.862Z,38.50
2023-01-19T00:13:37.686Z,38.50
2023-01-19T00:16:12.563Z,38.50
2023-01-19T00:18:50.307Z,38.60
2023-01-19T00:21:25.268Z,38.40
2023-01-19T00:24:00.668Z,38.60
2023-01-19T00:26:35.495Z,38.30
2023-01-19T00:29:14.140Z,38.30
2023-01-19T00:31:49.034Z,38.50
2023-01-19T00:34:23.867Z,38.60
2023-01-19T00:37:01.950Z,38.60
2023-01-19T00:39:36.766Z,38.70
2023-01-19T00:42:33.194Z,38.80
2023-01-19T00:45:11.271Z,39.00
2023-01-19T00:47:48.148Z,39.00
2023-01-19T00:50:26.174Z,39.10
2023-01-19T00:53:02.033Z,39.00
2023-01-19T00:55:37.123Z,39.10
2023-01-19T00:58:11.949Z,39.10
2023-01-19T01:00:46.791Z,39.30
2023-01-19T01:03:27.766Z,39.50
2023-01-19T01:06:03.679Z,39.60
2023-01-19T01:08:38.510Z,39.60
2023-01-19T01:11:13.343Z,39.60
2023-01-19T01:13:48.246Z,39.60
2023-01-19T01:16:23.521Z,39.70
2023-01-19T01:18:58.364Z,39.60
2023-01-19T01:21:34.621Z,39.60
2023-01-19T01:24:10.139Z,39.60
2023-01-19T01:26:45.095Z,39.70
2023-01-19T01:29:20.035Z,39.80
2023-01-19T01:31:54.938Z,39.70
2023-01-19T01:34:29.864Z,39.70
2023-01-19T01:37:08.121Z,40.10
2023-01-19T01:39:42.983Z,39.70
2023-01-19T01:42:20.843Z,39.50
2023-01-19T01:44:58.614Z,39.50
2023-01-19T01:47:42.435Z,39.60
2023-01-19T01:50:23.095Z,39.50
2023-01-19T01:53:06.528Z,39.50
2023-01-19T01:55:49.359Z,39.50
2023-01-19T01:58:24.193Z,39.50
2023-01-19T02:01:17.721Z,39.30
2023-01-19T02:03:53.851Z,39.50
2023-01-19T02:06:28.774Z,39.40
2023-01-19T02:09:27.954Z,39.40
2023-01-19T02:12:21.398Z,39.60
2023-01-19T02:14:56.210Z,39.40
2023-01-19T02:17:31.188Z,39.30
2023-01-19T02:20:06.994Z,39.50
2023-01-19T02:22:50.108Z,39.30
2023-01-19T02:25:25.505Z,40.20
2023-01-19T02:28:01.236Z,39.20
2023-01-19T02:30:39.936Z,39.30
2023-01-19T02:33:14.811Z,39.40
2023-01-19T02:35:52.292Z,39.40
2023-01-19T02:38:29.196Z,39.50
2023-01-19T02:41:07.741Z,39.30
2023-01-19T02:43:43.776Z,39.50
2023-01-19T02:46:18.749Z,39.50
2023-01-19T02:49:01.746Z,39.50
2023-01-19T02:51:36.650Z,39.60
2023-01-19T02:55:04.975Z,39.60
2023-01-19T02:57:56.355Z,39.60
2023-01-19T03:01:04.786Z,39.60
2023-01-19T03:03:58.564Z,39.60
2023-01-19T03:06:47.288Z,39.80
2023-01-19T03:09:34.059Z,39.80
2023-01-19T03:12:16.796Z,39.30
2023-01-19T03:14:59.755Z,39.70
2023-01-19T03:17:36.823Z,39.70
2023-01-19T03:20:18.647Z,39.80
2023-01-19T03:23:02.639Z,39.80
2023-01-19T03:25:43.002Z,39.90
2023-01-19T03:28:20.470Z,39.90
2023-01-19T03:31:07.957Z,40.00
2023-01-19T03:33:49.841Z,40.00
2023-01-19T03:36:37.843Z,40.10
2023-01-19T03:39:19.194Z,40.20
2023-01-19T03:42:03.464Z,40.30
2023-01-19T03:44:42.137Z,40.40
2023-01-19T03:47:20.112Z,40.50
2023-01-19T03:49:57.934Z,39.90
2023-01-19T03:52:33.656Z,40.50
2023-01-19T03:55:09.991Z,40.60
2023-01-19T03:57:45.208Z,40.70
2023-01-19T04:00:20.310Z,40.60
2023-01-19T04:02:55.645Z,40.80
2023-01-19T04:05:30.796Z,40.90
2023-01-19T04:08:06.483Z,41.00
2023-01-19T04:10:41.395Z,41.10
2023-01-19T04:13:16.262Z,41.10
2023-01-19T04:15:51.151Z,41.20
2023-01-19T04:18:26.153Z,41.40
2023-01-19T04:21:06.428Z,41.50
2023-01-19T04:23:41.295Z,41.60
2023-01-19T04:26:16.186Z,41.70
2023-01-19T04:28:51.059Z,41.60
2023-01-19T04:31:26.124Z,41.60
2023-01-19T04:34:02.166Z,41.60
2023-01-19T04:36:37.055Z,41.70
2023-01-19T04:39:12.301Z,41.70
2023-01-19T04:41:47.648Z,41.70
2023-01-19T04:44:22.516Z,41.80
2023-01-19T04:46:57.691Z,41.80
2023-01-19T04:49:32.586Z,41.70
2023-01-19T04:52:07.502Z,41.60
2023-01-19T04:54:43.213Z,41.60
2023-01-19T04:57:18.073Z,41.50
2023-01-19T04:59:52.932Z,41.40
2023-01-19T05:02:27.852Z,41.20
2023-01-19T05:05:04.936Z,41.00
2023-01-19T05:07:40.006Z,42.00
2023-01-19T05:10:14.873Z,41.70
2023-01-19T05:12:49.812Z,40.90
2023-01-19T05:15:24.701Z,40.90
2023-01-19T05:17:59.653Z,40.80
2023-01-19T05:20:34.575Z,40.80
2023-01-19T05:23:09.472Z,40.60
2023-01-19T05:25:44.815Z,40.70
2023-01-19T05:28:21.171Z,40.80
2023-01-19T05:30:56.093Z,40.70
2023-01-19T05:33:33.179Z,40.60
2023-01-19T05:36:08.568Z,40.60
2023-01-19T05:38:43.437Z,40.60
2023-01-19T05:41:18.448Z,40.40
2023-01-19T05:43:53.837Z,40.20
2023-01-19T05:46:28.797Z,40.00
2023-01-19T05:49:05.263Z,39.90
2023-01-19T05:51:45.136Z,40.10
2023-01-19T05:54:20.269Z,39.80
2023-01-19T05:56:55.259Z,39.80
2023-01-19T05:59:30.215Z,39.40
2023-01-19T06:02:05.190Z,39.80
2023-01-19T06:04:40.461Z,39.90
2023-01-19T06:07:15.455Z,39.80
2023-01-19T06:09:50.520Z,39.60
2023-01-19T06:12:25.531Z,39.50
2023-01-19T06:15:00.557Z,39.40
2023-01-19T06:17:35.543Z,39.40
2023-01-19T06:20:11.341Z,39.40
2023-01-19T06:22:47.660Z,39.40
2023-01-19T06:25:22.619Z,39.50
2023-01-19T06:27:57.540Z,39.70
2023-01-19T06:30:32.522Z,39.70
2023-01-19T06:33:09.402Z,39.80
2023-01-19T06:35:50.873Z,40.00
2023-01-19T06:38:25.978Z,40.20
2023-01-19T06:41:03.271Z,40.10
2023-01-19T06:43:38.316Z,40.20
2023-01-19T06:46:13.536Z,40.30
2023-01-19T06:48:48.470Z,40.10
2023-01-19T06:51:24.267Z,40.20
2023-01-19T06:53:59.254Z,40.40
2023-01-19T06:56:34.206Z,40.40
2023-01-19T06:59:10.089Z,40.40
2023-01-19T07:01:45.159Z,40.30
2023-01-19T07:04:20.198Z,40.10
2023-01-19T07:06:55.206Z,39.70
2023-01-19T07:09:30.187Z,39.80
2023-01-19T07:12:06.177Z,39.80
2023-01-19T07:14:41.059Z,39.90
2023-01-19T07:17:16.104Z,40.10
2023-01-19T07:19:51.068Z,39.80
2023-01-19T07:22:26.199Z,39.60
2023-01-19T07:25:01.755Z,39.80
2023-01-19T07:27:36.792Z,39.80
2023-01-19T07:30:12.218Z,39.80
2023-01-19T07:32:47.136Z,39.50
2023-01-19T07:35:22.213Z,39.80
2023-01-19T07:37:57.123Z,39.70
2023-01-19T07:40:33.394Z,39.60
2023-01-19T07:43:08.748Z,39.70
2023-01-19T07:45:44.969Z,39.50
2023-01-19T07:48:20.123Z,39.50
2023-01-19T07:51:01.429Z,39.60
2023-01-19T07:53:36.607Z,39.50
2023-01-19T07:56:12.093Z,39.50
2023-01-19T07:58:47.691Z,39.50
2023-01-19T08:01:23.546Z,39.40
2023-01-19T08:03:58.515Z,39.20
2023-01-19T08:06:36.537Z,38.80
2023-01-19T08:09:11.998Z,38.60
2023-01-19T08:11:47.019Z,38.40
2023-01-19T08:14:22.039Z,38.10
2023-01-19T08:17:01.593Z,37.90
2023-01-19T08:19:36.505Z,37.70
2023-01-19T08:22:11.460Z,37.80
2023-01-19T08:24:47.213Z,37.80
2023-01-19T08:27:22.851Z,37.60
2023-01-19T08:29:58.849Z,37.60
2023-01-19T08:32:33.747Z,37.70
2023-01-19T08:35:09.266Z,37.50
2023-01-19T08:37:44.307Z,37.30
2023-01-19T08:40:19.719Z,37.40
2023-01-19T08:43:03.556Z,37.30
2023-01-19T08:45:46.631Z,36.90
2023-01-19T08:48:23.576Z,36.70
2023-01-19T08:50:59.379Z,36.70
2023-01-19T08:53:34.683Z,36.50
2023-01-19T08:56:12.618Z,36.30
2023-01-19T08:58:56.228Z,36.20
2023-01-19T09:01:38.553Z,36.00
2023-01-19T09:04:13.569Z,35.80
2023-01-19T09:06:48.774Z,35.90
2023-01-19T09:09:23.740Z,35.90
2023-01-19T09:11:58.711Z,36.10
2023-01-19T09:14:33.625Z,36.20
2023-01-19T09:17:08.554Z,36.30
2023-01-19T09:19:43.641Z,36.40
2023-01-19T09:22:18.552Z,36.00
2023-01-19T09:24:53.511Z,35.70
2023-01-19T09:27:28.450Z,35.30
2023-01-19T09:30:05.940Z,35.20
2023-01-19T09:32:40.957Z,34.80
2023-01-19T09:35:16.464Z,34.60
2023-01-19T09:37:51.530Z,34.20
2023-01-19T09:40:27.326Z,34.10
2023-01-19T09:43:36.872Z,34.10
2023-01-19T09:46:17.898Z,34.10
2023-01-19T09:48:57.649Z,34.00
2023-01-19T09:51:40.018Z,32.50
2023-01-19T09:54:52.925Z,34.00
2023-01-19T09:57:29.990Z,33.90
2023-01-19T10:00:18.366Z,33.50
2023-01-19T10:03:14.787Z,33.40
2023-01-19T10:06:02.791Z,33.40
2023-01-19T10:09:04.125Z,33.30
2023-01-19T10:12:19.863Z,33.40
2023-01-19T10:15:23.072Z,33.60
2023-01-19T10:18:30.986Z,33.70
2023-01-19T10:21:10.552Z,33.90
2023-01-19T10:24:00.126Z,33.60
2023-01-19T10:26:50.087Z,33.60
2023-01-19T10:29:37.671Z,33.50
2023-01-19T10:32:26.505Z,33.30
2023-01-19T10:35:21.636Z,32.90
2023-01-19T10:38:01.375Z,33.00
2023-01-19T10:40:52.307Z,33.20
2023-01-19T10:43:41.544Z,33.00
2023-01-19T10:46:20.006Z,32.90
2023-01-19T10:48:55.856Z,32.40
2023-01-19T10:51:30.932Z,32.00
2023-01-19T10:54:12.609Z,31.80
2023-01-19T10:57:12.392Z,31.00
2023-01-19T10:59:50.905Z,31.10
2023-01-19T11:02:29.598Z,31.10
2023-01-19T11:05:28.482Z,31.10
2023-01-19T11:08:27.179Z,31.50
2023-01-19T11:11:05.114Z,31.50
2023-01-19T11:13:41.576Z,31.60
2023-01-19T11:16:27.772Z,31.40
2023-01-19T11:19:03.740Z,31.60
2023-01-19T11:21:38.837Z,31.60
2023-01-19T11:24:16.391Z,31.40
2023-01-19T11:27:03.650Z,31.30
2023-01-19T11:29:39.103Z,30.90
2023-01-19T11:32:22.408Z,31.00
2023-01-19T11:34:57.876Z,30.70
2023-01-19T11:37:34.558Z,30.60
2023-01-19T11:40:14.227Z,30.80
2023-01-19T11:42:49.319Z,30.70
2023-01-19T11:45:24.453Z,30.60
2023-01-19T11:48:04.757Z,30.40
2023-01-19T11:50:44.164Z,30.20
2023-01-19T11:53:25.847Z,30.10
2023-01-19T11:56:26.622Z,30.10
2023-01-19T11:59:02.972Z,30.30
2023-01-19T12:01:47.235Z,29.90
2023-01-19T12:04:36.534Z,30.00
2023-01-19T12:07:13.460Z,30.20
2023-01-19T12:09:54.645Z,30.40
2023-01-19T12:12:35.229Z,30.40
2023-01-19T12:15:33.272Z,30.50
2023-01-19T12:18:23.520Z,30.40
2023-01-19T12:20:58.899Z,30.50
2023-01-19T12:24:01.762Z,30.60
2023-01-19T12:26:54.503Z,30.70
2023-01-19T12:29:34.207Z,30.90
2023-01-19T12:32:16.664Z,30.90
2023-01-19T12:34:52.142Z,31.00
2023-01-19T12:37:37.243Z,30.40
2023-01-19T12:40:25.942Z,30.00
2023-01-19T12:43:05.135Z,30.10
2023-01-19T12:45:40.593Z,30.10
2023-01-19T12:48:26.345Z,30.30
2023-01-19T12:51:01.224Z,30.40
2023-01-19T12:53:36.600Z,30.70
2023-01-19T12:56:18.080Z,30.90
2023-01-19T12:58:53.040Z,31.40
2023-01-19T13:01:28.041Z,31.70
2023-01-19T13:04:31.517Z,32.10
2023-01-19T13:07:10.312Z,32.60
2023-01-19T13:09:45.307Z,33.00
2023-01-19T13:12:21.980Z,33.40
2023-01-19T13:15:34.431Z,33.80
2023-01-19T13:18:11.075Z,34.10
2023-01-19T13:21:06.840Z,34.40
2023-01-19T13:23:49.803Z,34.70
2023-01-19T13:26:57.430Z,34.90
2023-01-19T13:29:37.925Z,35.10
2023-01-19T13:32:19.293Z,35.40
2023-01-19T13:35:01.837Z,35.80
2023-01-19T13:37:43.401Z,35.70
2023-01-19T13:40:22.861Z,35.90
2023-01-19T13:42:58.633Z,36.10
2023-01-19T13:45:37.922Z,36.00
2023-01-19T13:48:19.608Z,36.20
2023-01-19T13:51:05.223Z,36.30
2023-01-19T13:53:40.291Z,36.10
2023-01-19T13:56:24.261Z,35.90
2023-01-19T13:59:07.013Z,35.50
2023-01-19T14:01:45.629Z,35.40
2023-01-19T14:04:31.997Z,35.40
2023-01-19T14:07:25.992Z,35.50
2023-01-19T14:10:15.039Z,35.70
2023-01-19T14:13:13.165Z,35.20
2023-01-19T14:15:50.581Z,35.00
2023-01-19T14:18:34.911Z,35.10
2023-01-19T14:21:15.935Z,35.20
2023-01-19T14:24:10.431Z,35.40
2023-01-19T14:26:54.671Z,35.10
2023-01-19T14:29:33.305Z,35.10
2023-01-19T14:32:24.819Z,35.00
2023-01-19T14:35:04.534Z,34.80
2023-01-19T14:37:48.421Z,34.90
2023-01-19T14:40:24.521Z,34.70
2023-01-19T14:43:04.223Z,34.80
2023-01-19T14:45:43.155Z,34.80
2023-01-19T14:48:22.072Z,34.80
2023-01-19T14:51:04.847Z,34.90
2023-01-19T14:53:39.835Z,35.00
2023-01-19T14:56:26.770Z,35.60
2023-01-19T14:59:05.509Z,35.60
2023-01-19T15:01:40.544Z,35.70
2023-01-19T15:04:15.551Z,35.80
2023-01-19T15:06:50.510Z,36.00
2023-01-19T15:09:25.607Z,36.30
2023-01-19T15:12:00.622Z,36.20
2023-01-19T15:14:35.538Z,36.30
2023-01-19T15:17:27.230Z,36.40
2023-01-19T15:20:02.158Z,36.40
2023-01-19T15:22:37.022Z,36.50
2023-01-19T15:25:18.365Z,36.60
2023-01-19T15:27:57.841Z,36.60
2023-01-19T15:30:36.120Z,36.80
2023-01-19T15:33:27.074Z,36.90
2023-01-19T15:36:02.094Z,37.10
2023-01-19T15:38:37.044Z,37.20
2023-01-19T15:41:18.061Z,37.20
2023-01-19T15:43:53.417Z,37.20
2023-01-19T15:46:28.417Z,37.30
2023-01-19T15:49:05.613Z,37.30
2023-01-19T15:51:40.504Z,37.30
2023-01-19T15:54:16.440Z,37.50
2023-01-19T15:56:52.671Z,37.60
2023-01-19T15:59:27.613Z,37.50
2023-01-19T16:02:03.430Z,37.50
2023-01-19T16:04:38.511Z,37.60
2023-01-19T16:07:13.736Z,37.60
2023-01-19T16:09:49.985Z,37.80
2023-01-19T16:12:25.014Z,37.70
2023-01-19T16:15:00.000Z,37.50
2023-01-19T16:17:35.000Z,37.40
2023-01-19T16:20:13.576Z,37.50
2023-01-19T16:22:49.387Z,37.50
2023-01-19T16:25:24.258Z,37.60
2023-01-19T16:27:59.306Z,37.50
2023-01-19T16:30:34.204Z,38.00
2023-01-19T16:33:11.492Z,37.60
2023-01-19T16:35:47.292Z,37.70
2023-01-19T16:38:23.468Z,37.80
2023-01-19T16:40:58.350Z,37.80
2023-01-19T16:43:33.396Z,37.80
2023-01-19T16:46:21.835Z,37.70
2023-01-19T16:49:19.321Z,37.90
2023-01-19T16:51:54.890Z,38.10
2023-01-19T16:54:30.100Z,38.40
2023-01-19T16:57:04.966Z,38.80
2023-01-19T16:59:40.133Z,39.00
2023-01-19T17:02:15.076Z,39.30
2023-01-19T17:04:50.010Z,39.60
2023-01-19T17:07:24.943Z,39.60
2023-01-19T17:10:00.100Z,39.60
2023-01-19T17:12:35.090Z,39.60
2023-01-19T17:15:10.571Z,39.90
2023-01-19T17:17:45.445Z,39.90
2023-01-19T17:20:20.419Z,40.00
2023-01-19T17:22:56.016Z,40.20
2023-01-19T17:25:31.183Z,40.40
2023-01-19T17:28:06.260Z,40.40
2023-01-19T17:30:41.259Z,40.50
2023-01-19T17:33:16.241Z,40.60
2023-01-19T17:35:51.348Z,40.80
2023-01-19T17:38:26.338Z,41.00
2023-01-19T17:41:01.384Z,41.10
2023-01-19T17:43:36.314Z,41.30
2023-01-19T17:46:12.276Z,41.50
2023-01-19T17:49:01.696Z,41.80
2023-01-19T17:51:37.355Z,42.30
2023-01-19T17:54:13.950Z,42.10
2023-01-19T17:56:51.061Z,42.20
2023-01-19T17:59:26.088Z,42.20
2023-01-19T18:02:01.321Z,42.20
2023-01-19T18:04:39.743Z,42.40
2023-01-19T18:07:14.602Z,42.40
2023-01-19T18:09:51.688Z,42.50
2023-01-19T18:12:26.616Z,42.60
2023-01-19T18:15:01.914Z,42.90
2023-01-19T18:17:37.380Z,43.20
2023-01-19T18:20:12.692Z,43.60
2023-01-19T18:22:47.841Z,44.00
2023-01-19T18:25:22.715Z,44.30
2023-01-19T18:27:57.628Z,44.50
2023-01-19T18:30:35.711Z,44.50
2023-01-19T18:33:10.713Z,44.50
2023-01-19T18:35:46.569Z,44.10
2023-01-19T18:38:22.436Z,44.00
2023-01-19T18:41:08.301Z,44.20
2023-01-19T18:43:44.135Z,44.50
2023-01-19T18:46:19.142Z,44.80
2023-01-19T18:48:54.264Z,45.10
2023-01-19T18:51:29.735Z,45.20
2023-01-19T18:54:04.783Z,45.00
2023-01-19T18:56:39.983Z,45.00
2023-01-19T18:59:14.978Z,44.90
2023-01-19T19:01:49.955Z,44.90
2023-01-19T19:04:24.947Z,44.90
2023-01-19T19:07:00.182Z,44.80
2023-01-19T19:09:36.039Z,44.60
2023-01-19T19:12:10.960Z,44.50
2023-01-19T19:14:45.836Z,44.40
2023-01-19T19:17:21.048Z,44.20
2023-01-19T19:19:55.897Z,44.00
2023-01-19T19:22:31.567Z,43.80
2023-01-19T19:25:06.789Z,43.60
2023-01-19T19:27:45.245Z,43.50
2023-01-19T19:30:21.249Z,43.30
2023-01-19T19:32:56.676Z,43.10
2023-01-19T19:35:32.420Z,43.00
2023-01-19T19:38:08.144Z,42.90
2023-01-19T19:40:42.997Z,42.90
2023-01-19T19:43:18.009Z,42.90
2023-01-19T19:46:00.999Z,43.00
2023-01-19T19:48:39.053Z,42.80
2023-01-19T19:51:23.801Z,43.00
2023-01-19T19:54:02.232Z,43.00
2023-01-19T19:56:37.109Z,43.00
2023-01-19T19:59:12.322Z,43.00
2023-01-19T20:01:49.737Z,43.00
2023-01-19T20:04:25.332Z,43.00
2023-01-19T20:07:00.277Z,43.20
2023-01-19T20:09:37.031Z,43.30
2023-01-19T20:12:11.891Z,43.40
2023-01-19T20:14:46.739Z,43.50
2023-01-19T20:17:23.139Z,43.60
2023-01-19T20:19:59.086Z,43.70
2023-01-19T20:22:33.942Z,43.90
2023-01-19T20:25:10.084Z,43.90
2023-01-19T20:27:46.141Z,44.10
2023-01-19T20:30:22.247Z,44.00
2023-01-19T20:32:57.165Z,44.10
2023-01-19T20:35:32.031Z,44.00
2023-01-19T20:38:06.964Z,43.90
2023-01-19T20:40:41.861Z,43.80
2023-01-19T20:43:16.783Z,43.80
2023-01-19T20:45:53.481Z,43.80
2023-01-19T20:48:28.602Z,43.70
2023-01-19T20:51:12.575Z,43.60
2023-01-19T20:53:48.501Z,43.60
2023-01-19T20:56:23.375Z,43.70
2023-01-19T20:58:59.429Z,43.70
2023-01-19T21:01:34.452Z,43.60
2023-01-19T21:04:10.908Z,43.60
2023-01-19T21:06:45.831Z,43.60
2023-01-19T21:09:22.721Z,43.70
2023-01-19T21:11:57.761Z,43.80
2023-01-19T21:14:32.633Z,43.80
2023-01-19T21:17:07.532Z,43.90
2023-01-19T21:19:42.411Z,44.00
2023-01-19T21:22:17.324Z,44.60
2023-01-19T21:24:52.194Z,43.70
2023-01-19T21:27:27.094Z,43.40
2023-01-19T21:30:02.395Z,43.30
2023-01-19T21:32:37.263Z,43.20
2023-01-19T21:35:12.328Z,43.20
2023-01-19T21:37:47.737Z,43.10
2023-01-19T21:40:22.627Z,43.10
2023-01-19T21:42:57.503Z,43.30
2023-01-19T21:45:32.399Z,43.50
2023-01-19T21:48:07.824Z,43.60
2023-01-19T21:50:43.022Z,43.70
2023-01-19T21:53:17.888Z,44.80
2023-01-19T21:55:52.855Z,43.80
2023-01-19T21:58:28.180Z,43.80
2023-01-19T22:01:15.368Z,43.80
2023-01-19T22:03:55.707Z,43.90
2023-01-19T22:06:30.661Z,44.10
2023-01-19T22:09:05.840Z,44.10
2023-01-19T22:11:40.691Z,44.30
2023-01-19T22:14:15.579Z,44.50
2023-01-19T22:16:50.486Z,44.60
2023-01-19T22:19:25.507Z,44.70
2023-01-19T22:22:00.364Z,45.10
2023-01-19T22:24:35.354Z,45.10
2023-01-19T22:27:10.199Z,45.20
2023-01-19T22:29:45.099Z,45.30
2023-01-19T22:32:19.969Z,45.50
2023-01-19T22:34:54.852Z,45.80
2023-01-19T22:37:29.708Z,46.20
2023-01-19T22:40:05.682Z,46.30
2023-01-19T22:42:40.537Z,46.50
2023-01-19T22:45:16.031Z,46.70
2023-01-19T22:47:50.941Z,46.90
2023-01-19T22:50:25.832Z,47.10
2023-01-19T22:53:00.675Z,47.30
2023-01-19T22:55:35.682Z,47.20
2023-01-19T22:58:10.530Z,47.20
2023-01-19T23:00:45.429Z,47.40
2023-01-19T23:03:20.306Z,47.60
2023-01-19T23:05:55.209Z,47.70
2023-01-19T23:08:30.168Z,47.40
2023-01-19T23:11:15.365Z,47.30
2023-01-19T23:13:51.152Z,47.40
2023-01-19T23:16:26.364Z,46.90
2023-01-19T23:19:01.370Z,46.90
2023-01-19T23:21:36.868Z,47.00
2023-01-19T23:24:12.091Z,46.80
2023-01-19T23:26:49.931Z,47.00
2023-01-19T23:29:24.834Z,46.50
2023-01-19T23:31:59.720Z,46.70
2023-01-19T23:34:34.578Z,46.80
2023-01-19T23:37:09.541Z,47.00
2023-01-19T23:39:44.435Z,46.60
2023-01-19T23:42:19.303Z,46.30
2023-01-19T23:44:55.257Z,46.30
2023-01-19T23:47:30.199Z,46.30
2023-01-19T23:50:05.901Z,46.10
2023-01-19T23:52:40.787Z,46.40
2023-01-19T23:55:16.683Z,46.20
2023-01-19T23:57:51.570Z,46.00
